Time;durP1;ratioP1;P1;durP2;ratioP2;P2;SDS_P1;SDS_P2;PMS_P1;PMS_P2;Temp;Humidity;BMP_temperature;BMP_pressure;BME280_temperature;BME280_humidity;BME280_pressure;Samples;Min_cycle;Max_cycle;Signal;HPM_P1;HPM_P2
2021/07/05 00:01:32;;;;;;;11.15;7.42;;;;;;;22.06;79.88;99633.59;1769646;80;21268;-57
2021/07/05 00:04:38;;;;;;;12.50;7.22;;;;;;;22.02;79.98;99631.62;1769188;80;21411;-57
2021/07/05 00:07:50;;;;;;;10.20;7.42;;;;;;;21.99;80.13;99630.19;1771582;80;21171;-57
2021/07/05 00:10:52;;;;;;;8.90;7.72;;;;;;;21.99;80.23;99631.58;1771076;80;21901;-57
2021/07/05 00:13:59;;;;;;;11.53;7.22;;;;;;;21.96;80.32;99633.52;1770836;80;21233;-56
2021/07/05 00:17:05;;;;;;;11.48;6.67;;;;;;;21.95;80.38;99635.18;1770970;81;21173;-58
2021/07/05 00:20:13;;;;;;;7.62;6.60;;;;;;;21.93;80.39;99642.96;1763524;79;21190;-57
2021/07/05 00:23:20;;;;;;;7.25;6.55;;;;;;;21.91;80.48;99639.62;1772526;80;21689;-57
2021/07/05 00:26:25;;;;;;;11.20;6.97;;;;;;;21.92;80.54;99635.17;1764214;80;21749;-58
2021/07/05 00:29:32;;;;;;;8.55;7.35;;;;;;;21.90;80.50;99640.71;1773138;79;21232;-57
2021/07/05 00:32:37;;;;;;;11.10;6.90;;;;;;;21.90;80.59;99638.77;1772395;80;21228;-57
2021/07/05 00:35:45;;;;;;;10.08;7.37;;;;;;;21.86;80.64;99633.47;1772049;79;21370;-56
2021/07/05 00:38:52;;;;;;;12.05;7.33;;;;;;;21.84;80.65;99635.67;1772347;80;21323;-57
2021/07/05 00:42:00;;;;;;;11.30;8.00;;;;;;;21.82;80.83;99632.84;1772442;80;21718;-57
2021/07/05 00:45:05;;;;;;;9.23;7.05;;;;;;;21.77;80.89;99639.22;1772473;79;21358;-57
2021/07/05 00:48:12;;;;;;;13.40;8.03;;;;;;;21.75;81.01;99630.31;1772977;80;21836;-57
2021/07/05 00:51:19;;;;;;;9.90;6.90;;;;;;;21.74;81.17;99633.34;1772922;79;21804;-56
2021/07/05 00:54:25;;;;;;;12.53;7.22;;;;;;;21.68;81.22;99633.83;1772659;79;21331;-59
2021/07/05 00:57:30;;;;;;;8.88;6.83;;;;;;;21.63;81.35;99632.39;1772638;80;21221;-59
2021/07/05 01:00:37;;;;;;;10.00;6.75;;;;;;;21.60;81.42;99638.50;1772669;79;21229;-58
2021/07/05 01:03:48;;;;;;;8.10;7.30;;;;;;;21.55;81.58;99646.80;1773186;79;21324;-57
2021/07/05 01:06:53;;;;;;;17.00;8.05;;;;;;;21.51;81.79;99649.84;1771956;80;21729;-59
2021/07/05 01:10:01;;;;;;;12.85;7.60;;;;;;;21.52;81.95;99650.12;1771000;79;21256;-58
2021/07/05 01:13:07;;;;;;;10.68;7.45;;;;;;;21.50;81.90;99648.72;1771097;81;21197;-57
2021/07/05 01:16:14;;;;;;;16.65;8.43;;;;;;;21.45;81.87;99648.66;1771009;79;21252;-57
2021/07/05 01:19:20;;;;;;;12.45;8.20;;;;;;;21.38;82.02;99654.98;1771355;80;21438;-57
2021/07/05 01:22:29;;;;;;;12.28;7.92;;;;;;;21.33;82.29;99661.35;1771453;80;21332;-59
2021/07/05 01:25:37;;;;;;;10.78;8.68;;;;;;;21.34;82.49;99656.09;1771290;79;21232;-59
2021/07/05 01:28:42;;;;;;;9.30;7.12;;;;;;;21.36;82.48;99653.86;1771542;81;21327;-59
2021/07/05 01:31:49;;;;;;;15.25;8.28;;;;;;;21.35;82.41;99645.23;1771505;79;21351;-58
2021/07/05 01:34:55;;;;;;;10.98;7.65;;;;;;;21.33;82.31;99650.21;1772534;79;21750;-57
2021/07/05 01:38:01;;;;;;;12.35;8.50;;;;;;;21.30;82.29;99653.53;1771496;80;21371;-58
2021/07/05 01:41:08;;;;;;;13.43;8.03;;;;;;;21.27;82.46;99645.70;1771210;79;21264;-56
2021/07/05 01:44:13;;;;;;;13.48;7.97;;;;;;;21.27;82.45;99646.25;1771161;81;21336;-56
2021/07/05 01:47:20;;;;;;;11.73;9.05;;;;;;;21.24;82.50;99651.80;1771203;81;21347;-57
2021/07/05 01:50:27;;;;;;;14.40;8.55;;;;;;;21.19;82.59;99640.61;1771047;79;21252;-57
2021/07/05 01:53:32;;;;;;;17.07;9.63;;;;;;;21.18;82.78;99635.30;1770931;80;21585;-56
2021/07/05 01:56:39;;;;;;;12.40;9.25;;;;;;;21.16;82.94;99634.72;1770858;79;21685;-59
2021/07/05 01:59:45;;;;;;;13.48;7.90;;;;;;;21.15;83.10;99631.11;1770471;79;21245;-57
2021/07/05 02:02:53;;;;;;;14.90;8.98;;;;;;;21.16;83.24;99632.78;1771132;81;21350;-56
2021/07/05 02:05:59;;;;;;;13.32;8.85;;;;;;;21.20;83.33;99627.53;1761681;80;21359;-56
2021/07/05 02:09:05;;;;;;;10.93;8.20;;;;;;;21.22;83.31;99630.33;1771609;80;21828;-56
2021/07/05 02:12:13;;;;;;;13.43;8.13;;;;;;;21.22;83.33;99628.09;1771806;80;21370;-57
2021/07/05 02:15:20;;;;;;;14.33;8.65;;;;;;;21.23;83.34;99626.44;1771134;79;21359;-58
2021/07/05 02:18:27;;;;;;;14.23;9.00;;;;;;;21.23;83.54;99618.66;1771004;80;21319;-57
2021/07/05 02:21:32;;;;;;;13.85;9.03;;;;;;;21.24;83.62;99618.39;1770828;79;21395;-57
2021/07/05 02:24:37;;;;;;;15.93;8.18;;;;;;;21.27;83.60;99619.80;1771441;79;21328;-57
2021/07/05 02:27:47;;;;;;;14.05;8.25;;;;;;;21.28;83.59;99613.14;1760752;80;21185;-57
2021/07/05 02:30:55;;;;;;;10.78;7.72;;;;;;;21.25;83.51;99614.48;1771697;79;21268;-56
2021/07/05 02:34:01;;;;;;;10.72;8.30;;;;;;;21.24;83.59;99599.45;1771382;80;21746;-58
2021/07/05 02:37:10;;;;;;;13.22;7.85;;;;;;;21.24;83.61;99607.80;1770884;81;21284;-59
2021/07/05 02:40:19;;;;;;;10.45;8.08;;;;;;;21.24;83.65;99612.82;1771144;79;21406;-58
2021/07/05 02:43:25;;;;;;;12.30;9.20;;;;;;;21.25;83.72;99620.05;1771392;80;21343;-60
2021/07/05 02:46:32;;;;;;;9.70;8.23;;;;;;;21.29;83.72;99624.55;1770693;79;21730;-59
2021/07/05 02:49:39;;;;;;;10.78;8.18;;;;;;;21.32;83.64;99625.42;1763516;80;21355;-58
2021/07/05 02:52:45;;;;;;;10.93;8.13;;;;;;;21.33;83.65;99615.95;1771093;80;21186;-58
2021/07/05 02:55:52;;;;;;;10.75;8.58;;;;;;;21.35;83.67;99620.71;1771145;79;21189;-59
2021/07/05 02:58:59;;;;;;;9.40;8.30;;;;;;;21.35;83.72;99619.31;1771219;80;21189;-58
2021/07/05 03:02:09;;;;;;;11.38;9.30;;;;;;;21.38;83.89;99625.20;1770791;81;21705;-58
2021/07/05 03:05:18;;;;;;;16.05;9.40;;;;;;;21.40;83.83;99625.79;1763562;80;21343;-58
2021/07/05 03:08:28;;;;;;;12.03;9.28;;;;;;;21.42;83.87;99616.59;1770940;80;21181;-59
2021/07/05 03:11:34;;;;;;;15.65;9.45;;;;;;;21.48;83.89;99612.78;1770772;79;21398;-58
2021/07/05 03:14:42;;;;;;;14.55;9.45;;;;;;;21.54;83.91;99605.28;1770773;79;21346;-59
2021/07/05 03:17:47;;;;;;;13.75;9.13;;;;;;;21.61;83.84;99607.31;1763646;81;21192;-62
2021/07/05 03:20:58;;;;;;;11.25;9.73;;;;;;;21.67;83.68;99621.02;1770467;79;22078;-58
2021/07/05 03:24:06;;;;;;;12.18;9.05;;;;;;;21.76;83.60;99624.16;1770677;80;21194;-58
2021/07/05 03:27:11;;;;;;;11.30;8.90;;;;;;;21.86;83.34;99615.34;1771121;80;21233;-59
2021/07/05 03:30:19;;;;;;;12.82;9.95;;;;;;;21.92;83.01;99618.45;1771078;79;21836;-60
2021/07/05 03:33:25;;;;;;;14.68;10.03;;;;;;;21.98;82.72;99620.16;1771013;80;21736;-57
2021/07/05 03:36:31;;;;;;;11.50;10.35;;;;;;;22.01;82.38;99615.44;1763457;80;21743;-58
2021/07/05 03:39:40;;;;;;;11.05;9.75;;;;;;;22.05;82.17;99614.36;1771147;79;21398;-58
2021/07/05 03:42:49;;;;;;;11.50;9.65;;;;;;;22.10;82.19;99616.60;1771482;80;21821;-57
2021/07/05 03:45:59;;;;;;;14.05;11.03;;;;;;;22.20;81.92;99618.61;1764290;80;21362;-58
2021/07/05 03:49:07;;;;;;;13.43;9.50;;;;;;;22.29;81.72;99618.95;1771290;81;21331;-59
2021/07/05 03:52:14;;;;;;;12.13;10.70;;;;;;;22.37;81.50;99611.47;1771216;80;21197;-59
2021/07/05 03:55:24;;;;;;;15.00;11.33;;;;;;;22.41;81.08;99612.05;1770984;80;21256;-60
2021/07/05 03:58:32;;;;;;;15.15;10.75;;;;;;;22.46;80.95;99610.69;1762931;80;21221;-58
2021/07/05 04:01:38;;;;;;;15.93;11.25;;;;;;;22.52;80.92;99605.44;1770995;79;21359;-59
2021/07/05 04:04:44;;;;;;;14.60;10.70;;;;;;;22.59;80.72;99599.61;1770938;79;21410;-58
2021/07/05 04:07:53;;;;;;;15.32;11.88;;;;;;;22.67;80.42;99603.27;1771162;79;21352;-60
2021/07/05 04:11:04;;;;;;;15.30;11.63;;;;;;;22.73;80.30;99589.61;1773772;79;21585;-59
2021/07/05 04:14:11;;;;;;;14.40;11.83;;;;;;;22.79;79.92;99589.91;1765655;80;21343;-60
2021/07/05 04:17:19;;;;;;;12.98;11.60;;;;;;;22.81;79.34;99584.90;1772937;80;21836;-59
2021/07/05 04:20:31;;;;;;;13.25;11.55;;;;;;;22.80;79.42;99590.21;1772761;79;21367;-59
2021/07/05 04:23:39;;;;;;;14.43;11.88;;;;;;;22.84;79.48;99587.14;1772738;80;21386;-61
2021/07/05 04:26:49;;;;;;;14.78;11.75;;;;;;;22.91;79.48;99588.55;1772410;79;21382;-60
2021/07/05 04:29:56;;;;;;;17.52;11.18;;;;;;;22.98;79.12;99588.29;1772243;79;21254;-60
2021/07/05 04:33:05;;;;;;;16.25;11.33;;;;;;;23.01;79.01;99580.20;1772678;80;21201;-61
2021/07/05 04:36:12;;;;;;;15.08;11.35;;;;;;;23.03;78.69;99588.30;1772665;79;21730;-59
2021/07/05 04:39:19;;;;;;;12.75;11.38;;;;;;;23.06;78.80;99596.13;1772806;80;21213;-58
2021/07/05 04:42:25;;;;;;;17.92;11.80;;;;;;;23.14;78.81;99595.04;1772729;80;21840;-59
2021/07/05 04:45:37;;;;;;;14.13;11.60;;;;;;;23.22;78.59;99586.66;1773124;79;21360;-60
2021/07/05 04:48:54;;;;;;;14.13;10.18;;;;;;;23.33;78.10;99586.98;1765799;80;21323;-60
2021/07/05 04:51:59;;;;;;;15.40;11.03;;;;;;;23.40;77.75;99581.39;1773214;80;21383;-61
2021/07/05 04:55:13;;;;;;;18.07;11.15;;;;;;;23.47;77.61;99580.58;1772968;79;21209;-60
2021/07/05 04:58:21;;;;;;;12.18;10.98;;;;;;;23.55;77.21;99574.98;1764564;80;21697;-57
2021/07/05 05:01:27;;;;;;;11.75;10.50;;;;;;;23.61;76.87;99580.29;1772159;79;21232;-61
2021/07/05 05:04:33;;;;;;;11.75;10.55;;;;;;;23.74;76.78;99592.05;1771820;79;21193;-58
2021/07/05 05:07:39;;;;;;;14.15;11.35;;;;;;;23.82;76.39;99583.91;1772136;80;22237;-56
2021/07/05 05:10:47;;;;;;;12.82;10.65;;;;;;;23.92;75.84;99582.51;1768338;79;21200;-58
2021/07/05 05:13:52;;;;;;;12.85;11.15;;;;;;;23.99;75.79;99585.05;1765158;81;21641;-58
2021/07/05 05:16:58;;;;;;;12.05;10.32;;;;;;;24.05;75.09;99588.95;1751883;80;21667;-59
2021/07/05 05:20:11;;;;;;;12.00;9.75;;;;;;;24.06;74.89;99579.98;1769866;80;21706;-58
2021/07/05 05:23:31;;;;;;;15.05;10.85;;;;;;;24.13;74.64;99577.20;1740012;81;21205;-58
2021/07/05 05:26:41;;;;;;;11.12;9.93;;;;;;;24.22;74.29;99576.88;1764645;80;21232;-57
2021/07/05 05:29:51;;;;;;;11.97;10.25;;;;;;;24.28;74.08;99574.34;1760641;80;21283;-59
2021/07/05 05:33:00;;;;;;;13.25;10.20;;;;;;;24.38;73.79;99577.11;1750260;80;21331;-59
2021/07/05 05:36:06;;;;;;;14.73;9.15;;;;;;;24.47;73.34;99571.19;1770209;80;21756;-56
2021/07/05 05:39:14;;;;;;;12.65;10.45;;;;;;;24.54;73.06;99578.73;1746231;80;21654;-58
2021/07/05 05:42:21;;;;;;;10.63;9.08;;;;;;;24.62;72.61;99578.14;1724891;82;21340;-58
2021/07/05 05:45:28;;;;;;;10.30;9.20;;;;;;;24.70;72.24;99583.17;1743249;80;21233;-57
2021/07/05 05:48:36;;;;;;;12.53;9.13;;;;;;;24.76;72.16;99579.77;1752489;80;21312;-58
2021/07/05 05:51:46;;;;;;;13.75;8.68;;;;;;;24.85;71.84;99572.44;1738919;82;21284;-59
2021/07/05 05:54:53;;;;;;;13.68;8.13;;;;;;;24.96;71.28;99579.65;1739489;82;21201;-56
2021/07/05 05:58:00;;;;;;;9.68;8.68;;;;;;;25.05;70.92;99566.15;1739266;82;21340;-58
2021/07/05 06:01:08;;;;;;;13.13;8.18;;;;;;;25.15;70.52;99575.63;1750643;80;21229;-58
2021/07/05 06:04:17;;;;;;;13.03;7.50;;;;;;;25.26;70.54;99575.84;1748692;80;21220;-58
2021/07/05 06:07:25;;;;;;;11.20;8.75;;;;;;;25.37;70.11;99577.47;1748877;80;21723;-59
2021/07/05 06:10:32;;;;;;;11.35;8.43;;;;;;;25.43;69.71;99580.50;1745281;80;21268;-59
2021/07/05 06:13:38;;;;;;;10.63;8.18;;;;;;;25.50;69.93;99576.23;1762298;80;21227;-58
2021/07/05 06:16:43;;;;;;;11.35;8.00;;;;;;;25.61;69.75;99582.61;1753036;81;22297;-58
2021/07/05 06:19:50;;;;;;;17.95;8.05;;;;;;;25.70;69.18;99583.64;1754965;81;21288;-59
2021/07/05 06:22:56;;;;;;;11.25;7.72;;;;;;;25.72;68.35;99587.81;1765057;80;21170;-58
2021/07/05 06:26:07;;;;;;;9.05;7.80;;;;;;;25.77;68.06;99592.53;1748569;81;21181;-59
2021/07/05 06:29:17;;;;;;;11.90;8.38;;;;;;;25.78;67.47;99590.02;1760637;80;21193;-59
2021/07/05 06:32:27;;;;;;;15.25;7.85;;;;;;;25.72;67.42;99592.02;1752609;81;21244;-59
2021/07/05 06:35:38;;;;;;;10.45;7.83;;;;;;;25.69;67.61;99591.80;1758405;81;21390;-61
2021/07/05 06:38:45;;;;;;;10.18;8.70;;;;;;;25.78;68.01;99597.03;1762669;80;21338;-58
2021/07/05 06:41:51;;;;;;;10.63;8.65;;;;;;;25.84;67.56;99598.65;1756891;80;21300;-58
2021/07/05 06:44:57;;;;;;;9.98;8.18;;;;;;;25.79;67.25;99609.35;1745958;81;21382;-58
2021/07/05 06:48:04;;;;;;;11.97;8.18;;;;;;;25.77;67.56;99602.34;1760016;81;21247;-60
2021/07/05 06:51:11;;;;;;;9.58;8.18;;;;;;;25.83;67.73;99595.59;1762628;80;21341;-59
2021/07/05 06:54:19;;;;;;;11.70;9.08;;;;;;;25.95;68.09;99601.63;1762177;81;21173;-58
2021/07/05 06:57:33;;;;;;;11.18;8.88;;;;;;;26.18;67.95;99603.66;1756676;80;21204;-57
2021/07/05 07:00:40;;;;;;;15.43;8.95;;;;;;;26.37;67.12;99601.77;1751165;80;21409;-57
2021/07/05 07:03:47;;;;;;;12.03;8.03;;;;;;;26.57;66.38;99593.69;1767708;81;21375;-58
2021/07/05 07:06:56;;;;;;;11.35;8.18;;;;;;;26.74;65.74;99584.23;1762327;80;21319;-56
2021/07/05 07:10:02;;;;;;;9.20;8.08;;;;;;;26.83;65.43;99591.69;1755840;80;21205;-57
2021/07/05 07:13:23;;;;;;;9.35;7.72;;;;;;;26.97;65.96;99589.84;1755483;81;21182;-57
2021/07/05 07:16:51;;;;;;;10.70;7.72;;;;;;;27.18;65.32;99578.55;1737631;81;21228;-57
2021/07/05 07:19:57;;;;;;;10.08;7.50;;;;;;;27.45;64.64;99574.50;1752154;80;21211;-60
2021/07/05 07:23:02;;;;;;;11.18;7.67;;;;;;;27.72;63.58;99573.20;1757331;80;21170;-59
2021/07/05 07:26:10;;;;;;;9.98;7.20;;;;;;;27.96;62.66;99577.88;1748820;80;21468;-57
2021/07/05 07:29:18;;;;;;;9.50;6.80;;;;;;;28.18;62.22;99586.50;1768243;80;21205;-58
2021/07/05 07:32:22;;;;;;;10.65;7.67;;;;;;;28.24;59.86;99579.02;1766360;80;21200;-58
2021/07/05 07:35:30;;;;;;;9.30;7.17;;;;;;;28.13;60.46;99578.14;1765264;81;21375;-59
2021/07/05 07:38:43;;;;;;;11.80;7.45;;;;;;;28.11;60.89;99567.76;1769090;81;21730;-58
2021/07/05 07:41:46;;;;;;;10.95;7.28;;;;;;;28.12;61.20;99568.01;1769335;79;21221;-59
2021/07/05 07:44:54;;;;;;;11.10;7.25;;;;;;;28.06;60.89;99556.59;1746009;79;21228;-59
2021/07/05 07:47:59;;;;;;;9.33;7.03;;;;;;;27.97;61.11;99557.05;1757458;81;21186;-60
2021/07/05 07:51:05;;;;;;;10.50;6.90;;;;;;;27.91;60.66;99545.63;1766997;80;21500;-59
2021/07/05 07:54:11;;;;;;;7.85;6.28;;;;;;;27.87;60.90;99546.78;1751964;81;21192;-57
2021/07/05 07:57:19;;;;;;;11.30;6.60;;;;;;;27.85;60.23;99571.58;1770032;81;21205;-59
2021/07/05 08:00:29;;;;;;;12.75;6.20;;;;;;;27.79;60.39;99572.25;1770275;79;21311;-57
2021/07/05 08:03:41;;;;;;;7.95;6.95;;;;;;;27.73;60.22;99578.27;1762739;81;21874;-57
2021/07/05 08:07:00;;;;;;;10.58;6.97;;;;;;;27.67;60.64;99566.84;1720132;81;21204;-57
2021/07/05 08:10:05;;;;;;;6.90;6.20;;;;;;;27.60;61.02;99570.61;1739442;81;21622;-56
2021/07/05 08:13:17;;;;;;;9.68;6.22;;;;;;;27.60;60.71;99577.08;1751042;79;21197;-56
2021/07/05 08:16:28;;;;;;;10.48;6.67;;;;;;;27.57;60.84;99581.91;1749168;80;21295;-58
2021/07/05 08:19:41;;;;;;;7.53;6.53;;;;;;;27.60;61.33;99591.14;1738463;81;21751;-58
2021/07/05 08:22:56;;;;;;;12.00;6.28;;;;;;;27.62;61.09;99580.40;1747498;80;21738;-56
2021/07/05 08:26:07;;;;;;;11.93;5.70;;;;;;;27.69;60.51;99582.27;1755034;80;21248;-56
2021/07/05 08:29:13;;;;;;;8.15;5.40;;;;;;;27.80;60.52;99582.35;1748425;80;21733;-57
2021/07/05 08:32:24;;;;;;;10.82;5.85;;;;;;;27.90;60.05;99587.55;1766130;81;21205;-57
2021/07/05 08:35:36;;;;;;;8.93;5.75;;;;;;;27.95;59.63;99581.28;1734760;82;21755;-57
2021/07/05 08:38:44;;;;;;;12.93;6.20;;;;;;;28.00;59.23;99572.75;1697569;84;21814;-58
2021/07/05 08:41:55;;;;;;;8.05;5.75;;;;;;;28.06;59.56;99565.03;1725759;82;21787;-57
2021/07/05 08:45:05;;;;;;;10.65;5.37;;;;;;;28.16;58.72;99563.44;1697481;83;21255;-58
2021/07/05 08:48:18;;;;;;;8.35;5.33;;;;;;;28.24;59.21;99573.98;1693019;83;21288;-57
2021/07/05 08:51:30;;;;;;;12.33;5.45;;;;;;;28.34;58.89;99567.58;1713954;82;21265;-57
2021/07/05 08:54:49;;;;;;;8.33;5.62;;;;;;;28.39;58.15;99561.00;1768526;79;21326;-58
2021/07/05 08:58:18;;;;;;;18.13;5.73;;;;;;;28.48;57.82;99566.22;1769727;80;21193;-61
2021/07/05 09:01:35;;;;;;;10.88;5.20;;;;;;;28.55;56.83;99567.46;1768880;81;21220;-57
2021/07/05 09:04:42;;;;;;;7.47;4.67;;;;;;;28.58;56.57;99554.72;1769731;81;21285;-59
2021/07/05 09:08:17;;;;;;;10.15;5.00;;;;;;;28.59;57.09;99563.45;1769409;81;21390;-58
2021/07/05 09:11:27;;;;;;;6.28;5.05;;;;;;;28.66;56.84;99553.98;1769814;79;21199;-57
2021/07/05 09:14:33;;;;;;;9.48;5.05;;;;;;;28.72;56.42;99547.09;1754574;79;21856;-57
2021/07/05 09:17:47;;;;;;;11.93;6.03;;;;;;;28.81;56.23;99554.48;1766271;81;21322;-56
2021/07/05 09:20:52;;;;;;;8.53;6.10;;;;;;;28.89;55.49;99547.30;1768930;80;21585;-57
2021/07/05 09:24:17;;;;;;;7.22;4.95;;;;;;;28.97;55.04;99538.09;1769552;80;21170;-59
2021/07/05 09:27:35;;;;;;;6.72;4.83;;;;;;;29.05;54.27;99537.34;1754061;80;21299;-57
2021/07/05 09:30:48;;;;;;;10.58;4.37;;;;;;;29.13;54.84;99542.23;1760310;80;21312;-56
2021/07/05 09:33:57;;;;;;;11.78;4.95;;;;;;;29.27;53.60;99545.88;1750658;79;21760;-57
2021/07/05 09:37:30;;;;;;;8.75;4.90;;;;;;;29.31;53.59;99548.30;1756191;79;21217;-58
2021/07/05 09:40:42;;;;;;;9.78;4.40;;;;;;;29.31;53.53;99559.58;1730650;80;21212;-57
2021/07/05 09:43:53;;;;;;;6.67;4.40;;;;;;;29.44;53.30;99538.95;1737034;81;21252;-58
2021/07/05 09:47:05;;;;;;;13.78;4.33;;;;;;;29.57;53.29;99547.94;1725416;80;21232;-56
2021/07/05 09:50:22;;;;;;;9.40;4.10;;;;;;;29.72;53.45;99551.80;1770018;79;21190;-56
2021/07/05 09:53:48;;;;;;;8.78;5.00;;;;;;;29.94;52.99;99553.19;1769246;81;21214;-58
2021/07/05 09:57:01;;;;;;;10.80;4.60;;;;;;;29.95;51.34;99546.41;1768503;79;21205;-58
2021/07/05 10:00:20;;;;;;;7.60;4.70;;;;;;;29.93;52.23;99551.53;1769969;80;21264;-60
2021/07/05 10:03:27;;;;;;;7.83;3.80;;;;;;;30.03;51.89;99548.41;1768169;80;21220;-56
2021/07/05 10:06:36;;;;;;;8.58;4.35;;;;;;;30.26;52.56;99545.84;1755514;79;21228;-60
2021/07/05 10:09:46;;;;;;;8.45;4.45;;;;;;;30.50;51.66;99533.56;1767025;79;21385;-60
2021/07/05 10:13:04;;;;;;;5.75;4.15;;;;;;;30.54;50.35;99555.75;1768051;80;21478;-58
2021/07/05 10:16:15;;;;;;;10.08;3.72;;;;;;;30.59;50.96;99543.47;1739504;80;21777;-60
2021/07/05 10:19:25;;;;;;;8.13;4.00;;;;;;;30.73;50.53;99545.61;1762515;80;21241;-57
2021/07/05 10:22:31;;;;;;;9.30;3.37;;;;;;;30.76;49.93;99546.40;1760115;80;21197;-58
2021/07/05 10:25:40;;;;;;;7.30;3.77;;;;;;;30.92;49.65;99542.52;1768701;79;21731;-58
2021/07/05 10:28:47;;;;;;;11.63;4.37;;;;;;;31.07;49.43;99549.94;1767006;81;21358;-57
2021/07/05 10:31:57;;;;;;;12.73;4.45;;;;;;;31.07;49.79;99542.88;1766215;79;21959;-58
2021/07/05 10:35:04;;;;;;;8.75;4.47;;;;;;;31.09;49.75;99550.45;1756721;81;21235;-58
2021/07/05 10:38:34;;;;;;;18.90;7.12;;;;;;;30.90;48.55;99547.66;1756496;81;21642;-58
2021/07/05 10:41:48;;;;;;;11.28;5.67;;;;;;;30.48;49.94;99550.00;1719147;81;21358;-57
2021/07/05 10:44:55;;;;;;;6.72;4.60;;;;;;;30.44;50.08;99543.36;1732773;82;21847;-58
2021/07/05 10:48:03;;;;;;;8.35;3.60;;;;;;;30.76;49.71;99540.75;1731050;82;21203;-58
2021/07/05 10:51:10;;;;;;;8.28;5.20;;;;;;;31.00;49.20;99547.36;1769192;80;21378;-56
2021/07/05 10:54:16;;;;;;;5.85;3.10;;;;;;;31.07;48.07;99537.78;1770308;80;21860;-59
2021/07/05 10:57:30;;;;;;;6.60;4.28;;;;;;;31.20;48.27;99541.05;1762588;81;21205;-57
2021/07/05 11:00:51;;;;;;;8.93;3.90;;;;;;;31.47;47.65;99536.52;1769462;80;21332;-57
2021/07/05 11:04:00;;;;;;;7.33;3.85;;;;;;;31.59;47.24;99535.23;1769705;80;21731;-57
2021/07/05 11:07:24;;;;;;;12.65;3.98;;;;;;;31.47;47.23;99539.34;1770178;80;21174;-57
2021/07/05 11:10:35;;;;;;;9.90;5.08;;;;;;;31.24;47.40;99537.83;1766030;79;21768;-58
2021/07/05 11:13:40;;;;;;;8.38;3.85;;;;;;;31.06;48.28;99533.30;1738691;82;21189;-59
2021/07/05 11:17:26;;;;;;;14.70;4.28;;;;;;;31.15;48.78;99533.56;1762939;79;21218;-59
2021/07/05 11:20:31;;;;;;;10.13;3.60;;;;;;;31.28;47.87;99529.75;1767105;80;21644;-57
2021/07/05 11:24:12;;;;;;;9.25;3.67;;;;;;;31.40;47.33;99524.28;1767964;81;21261;-57
2021/07/05 11:28:02;;;;;;;5.97;3.25;;;;;;;31.45;46.59;99526.09;1760650;81;21213;-59
2021/07/05 11:31:08;;;;;;;4.25;3.42;;;;;;;31.55;47.06;99519.53;1764696;81;21196;-59
2021/07/05 11:34:46;;;;;;;6.60;3.30;;;;;;;31.78;46.33;99511.65;1761091;80;21606;-57
2021/07/05 11:38:01;;;;;;;11.53;3.40;;;;;;;31.78;46.06;99513.06;1755733;80;21247;-57
2021/07/05 11:41:28;;;;;;;6.08;3.27;;;;;;;31.78;45.93;99515.89;1743604;81;22061;-58
2021/07/05 11:44:59;;;;;;;10.45;3.75;;;;;;;31.59;46.16;99512.02;1769233;80;21241;-57
2021/07/05 11:48:12;;;;;;;6.72;3.20;;;;;;;31.59;46.76;99509.77;1746975;80;21251;-61
2021/07/05 11:51:37;;;;;;;9.58;4.17;;;;;;;31.67;45.35;99499.86;1747168;80;21224;-58
2021/07/05 11:54:49;;;;;;;8.63;4.05;;;;;;;31.68;45.24;99502.12;1764268;79;21338;-59
2021/07/05 11:58:09;;;;;;;8.55;3.70;;;;;;;31.69;46.77;99503.77;1754946;80;21173;-59
2021/07/05 12:01:22;;;;;;;6.33;3.65;;;;;;;31.72;46.64;99511.59;1756092;81;22033;-58
2021/07/05 12:04:37;;;;;;;7.80;3.70;;;;;;;31.70;46.12;99506.27;1761295;80;21767;-57
2021/07/05 12:07:46;;;;;;;6.78;3.30;;;;;;;31.60;46.09;99506.59;1753316;81;21868;-58
2021/07/05 12:10:59;;;;;;;6.58;3.62;;;;;;;31.47;47.27;99505.39;1770681;80;21201;-57
2021/07/05 12:14:26;;;;;;;8.90;3.10;;;;;;;31.48;47.66;99519.77;1763213;80;21741;-59
2021/07/05 12:17:34;;;;;;;9.55;3.65;;;;;;;31.41;46.58;99508.14;1766745;80;21316;-58
2021/07/05 12:20:44;;;;;;;8.85;4.37;;;;;;;31.38;46.82;99501.74;1768546;80;21797;-58
2021/07/05 12:24:05;;;;;;;7.25;3.50;;;;;;;31.37;47.30;99498.06;1768483;80;21225;-57
2021/07/05 12:27:22;;;;;;;6.58;3.92;;;;;;;31.42;47.53;99496.48;1770795;80;21760;-58
2021/07/05 12:30:32;;;;;;;9.10;3.80;;;;;;;31.34;47.16;99495.91;1770084;79;21213;-58
2021/07/05 12:33:41;;;;;;;7.17;3.87;;;;;;;31.36;47.97;99487.09;1769900;81;21220;-56
2021/07/05 12:37:03;;;;;;;10.85;4.70;;;;;;;31.45;47.84;99480.83;1768991;79;21209;-59
2021/07/05 12:40:29;;;;;;;7.62;3.30;;;;;;;31.61;47.56;99481.97;1768333;81;21238;-58
2021/07/05 12:43:39;;;;;;;5.15;3.40;;;;;;;31.70;46.96;99482.77;1767848;81;21344;-58
2021/07/05 12:46:46;;;;;;;7.95;3.58;;;;;;;31.69;47.26;99481.13;1768451;81;21383;-57
2021/07/05 12:49:59;;;;;;;13.28;3.87;;;;;;;31.65;47.29;99485.81;1760281;81;21225;-58
2021/07/05 12:53:31;;;;;;;6.03;3.37;;;;;;;31.35;46.65;99486.84;1769598;80;21229;-59
2021/07/05 12:56:38;;;;;;;9.23;3.50;;;;;;;30.95;46.63;99483.33;1738916;81;21574;-59
2021/07/05 12:59:44;;;;;;;7.55;3.45;;;;;;;30.67;47.72;99472.61;1732419;81;21240;-56
2021/07/05 13:02:53;;;;;;;7.08;3.55;;;;;;;30.57;48.38;99466.09;1729993;82;21243;-59
2021/07/05 13:05:58;;;;;;;10.58;3.70;;;;;;;30.60;48.67;99470.27;1738540;81;21204;-57
2021/07/05 13:09:27;;;;;;;10.23;3.47;;;;;;;30.63;48.82;99470.45;1738923;82;21244;-59
2021/07/05 13:12:32;;;;;;;11.38;4.00;;;;;;;30.61;48.95;99459.20;1739205;82;21205;-58
2021/07/05 13:15:46;;;;;;;9.35;3.37;;;;;;;30.50;49.43;99472.82;1739296;81;21224;-60
2021/07/05 13:18:55;;;;;;;8.13;3.87;;;;;;;30.40;49.65;99465.21;1738967;81;21727;-58
2021/07/05 13:22:01;;;;;;;7.87;3.75;;;;;;;30.32;49.78;99465.45;1739331;82;21292;-58
2021/07/05 13:25:09;;;;;;;8.88;3.95;;;;;;;30.29;50.63;99461.87;1739869;81;21225;-58
2021/07/05 13:28:25;;;;;;;8.85;3.98;;;;;;;30.47;50.19;99460.77;1732708;82;21189;-59
2021/07/05 13:31:47;;;;;;;6.17;3.70;;;;;;;30.37;50.39;99455.41;1740006;81;21224;-58
2021/07/05 13:34:55;;;;;;;9.05;3.72;;;;;;;30.43;51.04;99454.09;1740633;81;21231;-57
2021/07/05 13:38:06;;;;;;;5.17;3.60;;;;;;;30.56;50.51;99450.31;1739944;82;21259;-58
2021/07/05 13:41:21;;;;;;;12.07;3.77;;;;;;;30.52;49.17;99460.59;1740559;81;21363;-58
2021/07/05 13:44:32;;;;;;;12.00;3.77;;;;;;;30.55;49.69;99452.89;1751888;81;21239;-57
2021/07/05 13:47:38;;;;;;;10.23;3.95;;;;;;;30.62;49.82;99460.86;1741340;82;21736;-57
2021/07/05 13:51:01;;;;;;;23.15;3.98;;;;;;;30.68;49.21;99460.13;1740375;81;21902;-58
2021/07/05 13:54:10;;;;;;;8.75;3.95;;;;;;;30.63;48.93;99459.71;1740649;82;21460;-59
2021/07/05 13:57:20;;;;;;;11.50;3.72;;;;;;;30.71;48.63;99458.05;1740456;82;21351;-58
2021/07/05 14:00:28;;;;;;;9.10;3.30;;;;;;;30.77;48.76;99462.41;1740331;81;21781;-57
2021/07/05 14:03:40;;;;;;;8.33;3.80;;;;;;;30.79;48.28;99457.27;1734198;82;21355;-59
2021/07/05 14:07:03;;;;;;;8.38;3.42;;;;;;;30.83;48.69;99452.63;1740718;80;21212;-57
2021/07/05 14:10:13;;;;;;;10.30;3.62;;;;;;;30.86;48.10;99466.91;1751774;81;21809;-56
2021/07/05 14:13:20;;;;;;;10.18;3.58;;;;;;;30.79;47.80;99467.16;1739080;82;21792;-58
2021/07/05 14:16:28;;;;;;;14.75;3.55;;;;;;;30.73;47.34;99458.56;1739359;81;21212;-57
2021/07/05 14:19:35;;;;;;;7.75;3.70;;;;;;;30.74;46.80;99461.06;1738709;81;21227;-59
2021/07/05 14:22:42;;;;;;;8.48;3.40;;;;;;;30.82;46.10;99468.75;1739835;82;21382;-60
2021/07/05 14:25:49;;;;;;;9.50;3.33;;;;;;;30.88;46.45;99465.17;1740244;81;21256;-61
2021/07/05 14:28:56;;;;;;;19.10;3.98;;;;;;;30.85;46.83;99458.77;1740859;82;21855;-60
2021/07/05 14:32:02;;;;;;;5.37;3.25;;;;;;;30.87;47.37;99472.00;1740534;82;21347;-61
2021/07/05 14:35:11;;;;;;;11.83;3.75;;;;;;;30.83;47.66;99469.59;1768382;81;21354;-60
2021/07/05 14:38:17;;;;;;;20.25;3.20;;;;;;;30.80;47.50;99477.30;1735969;82;21689;-60
2021/07/05 14:41:24;;;;;;;10.30;3.77;;;;;;;30.75;47.36;99477.45;1697939;84;21248;-58
2021/07/05 14:44:32;;;;;;;20.95;3.85;;;;;;;30.65;47.59;99482.23;1691189;83;21232;-57
2021/07/05 14:47:43;;;;;;;16.20;3.67;;;;;;;30.59;46.96;99494.02;1690860;85;21450;-59